Time;durP1;ratioP1;P1;durP2;ratioP2;P2;SDS_P1;SDS_P2;PMS_P1;PMS_P2;Temp;Humidity;BMP_temperature;BMP_pressure;BME280_temperature;BME280_humidity;BME280_pressure;Samples;Min_cycle;Max_cycle;Signal;HPM_P1;HPM_P2
2023/10/04 00:01:04;;;;;;;0.00;0.00;;;;;;;15.48;100.00;102331.03;5107345;27;20132;-45
2023/10/04 00:03:29;;;;;;;0.00;0.00;;;;;;;15.43;100.00;102336.16;5106895;28;20111;-45
2023/10/04 00:05:55;;;;;;;0.00;0.00;;;;;;;15.40;100.00;102330.22;5105621;28;20126;-47
2023/10/04 00:08:22;;;;;;;0.00;0.00;;;;;;;15.40;100.00;102333.75;5104539;28;20035;-46
2023/10/04 00:10:49;;;;;;;0.00;0.00;;;;;;;15.41;100.00;102349.03;5107566;28;20051;-51
2023/10/04 00:13:15;;;;;;;0.00;0.00;;;;;;;15.44;100.00;102350.56;5106637;27;20024;-46
2023/10/04 00:15:40;;;;;;;0.00;0.00;;;;;;;15.45;100.00;102349.53;5104768;28;20293;-47
2023/10/04 00:18:06;;;;;;;0.00;0.00;;;;;;;15.43;100.00;102347.00;5106888;27;20118;-46
2023/10/04 00:20:32;;;;;;;0.00;0.00;;;;;;;15.41;100.00;102357.19;5108535;27;20158;-45
2023/10/04 00:22:58;;;;;;;0.00;0.00;;;;;;;15.40;100.00;102358.19;5106418;28;20125;-45
2023/10/04 00:25:24;;;;;;;0.00;0.00;;;;;;;15.42;100.00;102344.44;5104662;28;20063;-48
2023/10/04 00:27:56;;;;;;;0.00;0.00;;;;;;;15.40;100.00;102346.50;5105448;28;20066;-48
2023/10/04 00:30:26;;;;;;;0.00;0.00;;;;;;;15.39;100.00;102345.66;5104903;28;20024;-47
2023/10/04 00:32:53;;;;;;;0.00;0.00;;;;;;;15.40;100.00;102344.63;5104560;28;20020;-49
2023/10/04 00:35:19;;;;;;;0.00;0.00;;;;;;;15.37;100.00;102353.13;5104688;28;20386;-46
2023/10/04 00:37:50;;;;;;;0.00;0.00;;;;;;;15.35;100.00;102350.59;5106927;28;20072;-49
2023/10/04 00:40:21;;;;;;;0.00;0.00;;;;;;;15.30;100.00;102350.28;5106837;28;20047;-46
2023/10/04 00:42:49;;;;;;;0.00;0.00;;;;;;;15.34;100.00;102353.47;5104531;28;20110;-46
2023/10/04 00:45:16;;;;;;;0.00;0.00;;;;;;;15.31;100.00;102359.25;5100287;28;20106;-46
2023/10/04 00:47:43;;;;;;;0.00;0.00;;;;;;;15.26;100.00;102361.66;5105578;28;20035;-44
2023/10/04 00:50:16;;;;;;;0.00;0.00;;;;;;;15.22;100.00;102360.28;5104672;28;20035;-46
2023/10/04 00:52:48;;;;;;;0.00;0.00;;;;;;;15.20;100.00;102362.38;5105935;28;20054;-45
2023/10/04 00:55:18;;;;;;;0.00;0.00;;;;;;;15.20;100.00;102359.66;5101447;28;20124;-45
2023/10/04 00:57:44;;;;;;;0.00;0.00;;;;;;;15.19;100.00;102363.38;5105430;28;20470;-46
2023/10/04 01:00:11;;;;;;;0.00;0.00;;;;;;;15.19;100.00;102360.66;5102231;28;20062;-44
2023/10/04 01:02:37;;;;;;;0.00;0.00;;;;;;;15.17;100.00;102363.56;5102697;28;20035;-46
2023/10/04 01:05:04;;;;;;;0.00;0.00;;;;;;;15.23;100.00;102367.44;5103356;28;20038;-46
2023/10/04 01:07:30;;;;;;;0.00;0.00;;;;;;;15.23;100.00;102373.69;5104433;28;20038;-46
2023/10/04 01:09:56;;;;;;;0.00;0.00;;;;;;;15.23;100.00;102378.28;5102085;28;20493;-45
2023/10/04 01:12:24;;;;;;;0.00;0.00;;;;;;;15.25;100.00;102381.66;5106031;28;20028;-48
2023/10/04 01:14:53;;;;;;;0.00;0.00;;;;;;;15.22;100.00;102374.72;5100053;28;20058;-46
2023/10/04 01:17:19;;;;;;;0.00;0.00;;;;;;;15.27;100.00;102377.75;5104583;28;20470;-44
2023/10/04 01:19:44;;;;;;;0.00;0.00;;;;;;;15.30;100.00;102379.28;5106521;28;20085;-48
2023/10/04 01:22:11;;;;;;;0.00;0.00;;;;;;;15.25;100.00;102377.09;5103324;28;20036;-45
2023/10/04 01:24:41;;;;;;;0.00;0.00;;;;;;;15.23;100.00;102378.28;5104351;28;20054;-44
2023/10/04 01:27:09;;;;;;;0.00;0.00;;;;;;;15.16;100.00;102367.28;5103267;28;20670;-45
2023/10/04 01:29:38;;;;;;;;;;;;;;;15.16;100.00;102372.69;5105491;28;20049;-45
2023/10/04 01:32:05;;;;;;;0.00;0.00;;;;;;;15.09;100.00;102356.28;5101950;28;19946;-47
2023/10/04 01:34:30;;;;;;;0.00;0.00;;;;;;;15.07;100.00;102369.19;5102675;28;20030;-45
2023/10/04 01:36:55;;;;;;;0.00;0.00;;;;;;;15.08;100.00;102376.28;5102579;28;20023;-46
2023/10/04 01:39:22;;;;;;;0.00;0.00;;;;;;;15.04;100.00;102369.53;5105476;28;20108;-45
2023/10/04 01:41:49;;;;;;;0.00;0.00;;;;;;;15.04;100.00;102371.41;5100734;28;20017;-47
2023/10/04 01:44:14;;;;;;;0.00;0.00;;;;;;;15.02;100.00;102376.97;5103130;28;20039;-45
2023/10/04 01:46:40;;;;;;;0.00;0.00;;;;;;;15.04;100.00;102369.53;5102673;28;20086;-46
2023/10/04 01:49:08;;;;;;;0.00;0.00;;;;;;;15.06;100.00;102361.19;5104451;28;20475;-45
2023/10/04 01:51:34;;;;;;;0.00;0.00;;;;;;;15.13;100.00;102365.75;5102381;28;20039;-45
2023/10/04 01:54:00;;;;;;;0.00;0.00;;;;;;;15.06;100.00;102364.78;5105559;28;20059;-46
2023/10/04 01:56:26;;;;;;;0.00;0.00;;;;;;;15.06;100.00;102356.66;5099277;28;20115;-45
2023/10/04 01:58:52;;;;;;;0.00;0.00;;;;;;;15.02;100.00;102363.44;5104955;28;20569;-45
2023/10/04 02:01:17;;;;;;;0.00;0.00;;;;;;;15.03;100.00;102354.25;5100026;28;20050;-45
2023/10/04 02:03:42;;;;;;;0.00;0.00;;;;;;;15.02;100.00;102355.28;5104278;28;20024;-43
2023/10/04 02:06:08;;;;;;;0.00;0.00;;;;;;;15.04;100.00;102366.81;5103887;28;20546;-48
2023/10/04 02:08:34;;;;;;;0.00;0.00;;;;;;;15.03;100.00;102356.97;5105403;28;20078;-46
2023/10/04 02:10:59;;;;;;;0.00;0.00;;;;;;;15.03;100.00;102362.41;5103251;28;20045;-47
2023/10/04 02:13:27;;;;;;;0.00;0.00;;;;;;;15.02;100.00;102363.44;5104933;28;20107;-43
2023/10/04 02:15:53;;;;;;;0.00;0.00;;;;;;;15.04;100.00;102374.94;5105180;28;20020;-45
2023/10/04 02:18:19;;;;;;;0.00;0.00;;;;;;;15.07;100.00;102371.03;5103321;28;20523;-45
2023/10/04 02:20:49;;;;;;;0.00;0.00;;;;;;;15.02;100.00;102366.13;5102967;28;20077;-46
2023/10/04 02:23:18;;;;;;;0.00;0.00;;;;;;;14.98;100.00;102372.06;5106827;28;20043;-44
2023/10/04 02:25:44;;;;;;;0.00;0.00;;;;;;;14.95;100.00;102381.41;5106456;28;20047;-46
2023/10/04 02:28:11;;;;;;;0.00;0.00;;;;;;;14.96;100.00;102385.81;5107064;28;20693;-46
2023/10/04 02:30:40;;;;;;;0.00;0.00;;;;;;;14.93;100.00;102387.00;5104391;28;20040;-44
2023/10/04 02:33:13;;;;;;;0.00;0.00;;;;;;;14.92;100.00;102387.16;5105275;28;20043;-44
2023/10/04 02:35:46;;;;;;;0.00;0.00;;;;;;;14.89;100.00;102392.94;5107786;28;20046;-44
2023/10/04 02:38:26;;;;;;;0.00;0.00;;;;;;;14.88;100.00;102396.69;5107349;28;20085;-47
2023/10/04 02:40:55;;;;;;;0.00;0.00;;;;;;;14.86;100.00;102387.88;5105104;28;20032;-46
2023/10/04 02:43:25;;;;;;;0.00;0.00;;;;;;;14.87;100.00;102389.56;5103307;28;20031;-46
2023/10/04 02:45:52;;;;;;;0.00;0.00;;;;;;;14.85;100.00;102391.59;5105348;28;20020;-48
2023/10/04 02:48:18;;;;;;;0.00;0.00;;;;;;;14.84;100.00;102400.75;5105827;28;20031;-46
2023/10/04 02:50:44;;;;;;;0.00;0.00;;;;;;;14.86;100.00;102401.44;5103258;28;20084;-47
2023/10/04 02:53:31;;;;;;;0.00;0.00;;;;;;;14.84;100.00;102395.31;5106398;28;20035;-50
2023/10/04 02:55:57;;;;;;;0.00;0.00;;;;;;;14.78;100.00;102388.72;5106527;28;20473;-49
2023/10/04 02:58:23;;;;;;;0.00;0.00;;;;;;;14.73;100.00;102393.81;5108749;27;20389;-46
2023/10/04 03:00:50;;;;;;;0.00;0.00;;;;;;;14.73;100.00;102396.53;5107135;28;20130;-46
2023/10/04 03:03:19;;;;;;;0.00;0.00;;;;;;;14.71;100.00;102393.97;5106828;28;20035;-44
2023/10/04 03:05:45;;;;;;;0.00;0.00;;;;;;;14.67;100.00;102406.19;5108853;28;20126;-46
2023/10/04 03:08:11;;;;;;;0.00;0.00;;;;;;;14.68;100.00;102394.31;5108623;28;20031;-46
2023/10/04 03:10:37;;;;;;;0.00;0.00;;;;;;;14.66;100.00;102388.22;5106618;28;20547;-46
2023/10/04 03:13:06;;;;;;;0.00;0.00;;;;;;;14.62;100.00;102392.31;5104045;28;20621;-46
2023/10/04 03:15:32;;;;;;;0.00;0.00;;;;;;;14.63;100.00;102391.28;5102840;28;20490;-47
2023/10/04 03:17:59;;;;;;;0.00;0.00;;;;;;;14.60;100.00;102378.09;5103490;28;20252;-47
2023/10/04 03:20:28;;;;;;;0.00;0.00;;;;;;;14.60;100.00;102386.22;5103472;28;20035;-46
2023/10/04 03:23:10;;;;;;;0.00;0.00;;;;;;;14.57;100.00;102389.25;5105093;28;20035;-48
2023/10/04 03:25:36;;;;;;;0.00;0.00;;;;;;;14.57;100.00;102380.28;5104269;28;20036;-47
2023/10/04 03:28:02;;;;;;;0.00;0.00;;;;;;;14.53;100.00;102387.91;5102518;27;20206;-46
2023/10/04 03:30:28;;;;;;;0.00;0.00;;;;;;;14.49;100.00;102392.78;5105635;28;20430;-46
2023/10/04 03:32:55;;;;;;;0.00;0.00;;;;;;;14.47;100.00;102393.97;5105666;28;20049;-44
2023/10/04 03:35:21;;;;;;;0.00;0.00;;;;;;;14.48;100.00;102390.25;5106344;28;20118;-49
2023/10/04 03:37:54;;;;;;;0.00;0.00;;;;;;;14.48;100.00;102395.66;5104518;28;20034;-43
2023/10/04 03:40:21;;;;;;;0.00;0.00;;;;;;;14.43;100.00;102395.34;5103794;28;20015;-44
2023/10/04 03:42:46;;;;;;;0.00;0.00;;;;;;;14.40;100.00;102388.41;5106076;28;20027;-48
2023/10/04 03:45:13;;;;;;;0.00;0.00;;;;;;;14.38;100.00;102390.44;5104210;28;20470;-46
2023/10/04 03:47:39;;;;;;;0.00;0.00;;;;;;;14.37;100.00;102387.88;5105580;28;20028;-47
2023/10/04 03:50:09;;;;;;;0.00;0.00;;;;;;;14.36;100.00;102383.50;5104902;28;20296;-48
2023/10/04 03:52:34;;;;;;;0.00;0.00;;;;;;;14.35;100.00;102376.34;5105326;28;20476;-43
2023/10/04 03:55:00;;;;;;;0.00;0.00;;;;;;;14.38;100.00;102385.00;5103798;28;20053;-47
2023/10/04 03:57:25;;;;;;;0.00;0.00;;;;;;;14.38;100.00;102379.59;5106280;27;20115;-42
2023/10/04 03:59:51;;;;;;;0.00;0.00;;;;;;;14.38;100.00;102376.88;5104651;28;20047;-41
2023/10/04 04:02:16;;;;;;;0.00;0.00;;;;;;;14.38;100.00;102368.75;5104556;28;20027;-44
2023/10/04 04:04:42;;;;;;;0.00;0.00;;;;;;;14.38;100.00;102367.91;5104620;28;20024;-45
2023/10/04 04:07:07;;;;;;;0.00;0.00;;;;;;;14.34;100.00;102361.13;5105113;28;20076;-47
2023/10/04 04:09:33;;;;;;;0.00;0.00;;;;;;;14.36;100.00;102351.81;5105224;27;20134;-47
2023/10/04 04:11:58;;;;;;;0.00;0.00;;;;;;;14.37;100.00;102349.97;5103620;28;20039;-46
2023/10/04 04:14:23;;;;;;;0.00;0.00;;;;;;;14.36;100.00;102353.69;5101788;28;20540;-49
2023/10/04 04:16:51;;;;;;;0.00;0.00;;;;;;;14.35;100.00;102357.41;5101749;28;20026;-45
2023/10/04 04:19:19;;;;;;;0.00;0.00;;;;;;;14.31;100.00;102356.91;5106902;27;20477;-47
2023/10/04 04:21:45;;;;;;;0.00;0.00;;;;;;;14.27;100.00;102369.94;5104560;28;20202;-44
2023/10/04 04:24:10;;;;;;;0.00;0.00;;;;;;;14.24;100.00;102382.97;5105165;28;20146;-44
2023/10/04 04:26:35;;;;;;;0.00;0.00;;;;;;;14.22;100.00;102380.44;5102864;28;20097;-46
2023/10/04 04:29:01;;;;;;;0.00;0.00;;;;;;;14.20;100.00;102376.22;5103820;28;20028;-47
2023/10/04 04:31:26;;;;;;;0.00;0.00;;;;;;;14.20;100.00;102387.88;5101804;28;20542;-43
2023/10/04 04:33:53;;;;;;;0.00;0.00;;;;;;;14.19;100.00;102386.19;5104307;28;20034;-45
2023/10/04 04:36:25;;;;;;;0.00;0.00;;;;;;;14.16;100.00;102391.09;5103748;28;20533;-44
2023/10/04 04:38:52;;;;;;;0.00;0.00;;;;;;;14.13;100.00;102392.25;5104196;28;20465;-46
2023/10/04 04:41:21;;;;;;;0.00;0.00;;;;;;;14.13;100.00;102386.84;5103630;28;20059;-46
2023/10/04 04:43:49;;;;;;;0.00;0.00;;;;;;;14.13;100.00;102392.25;5104637;28;20023;-49
2023/10/04 04:46:16;;;;;;;0.00;0.00;;;;;;;14.13;100.00;102392.25;5103387;28;20042;-44
2023/10/04 04:48:43;;;;;;;0.00;0.00;;;;;;;14.11;100.00;102391.56;5100985;27;20509;-43
2023/10/04 04:51:12;;;;;;;0.00;0.00;;;;;;;14.12;100.00;102392.44;5101340;28;20032;-45
2023/10/04 04:53:42;;;;;;;0.00;0.00;;;;;;;14.12;100.00;102396.00;5106123;28;20675;-49
2023/10/04 04:56:14;;;;;;;0.00;0.00;;;;;;;14.14;100.00;102410.22;5102627;28;20092;-47
2023/10/04 04:58:51;;;;;;;0.00;0.00;;;;;;;14.16;100.00;102401.91;5106210;28;20762;-43
2023/10/04 05:01:16;;;;;;;0.00;0.00;;;;;;;14.17;100.00;102407.16;5104860;28;20158;-45
2023/10/04 05:03:43;;;;;;;0.00;0.00;;;;;;;14.16;100.00;102410.03;5106570;28;20541;-47
2023/10/04 05:06:13;;;;;;;0.00;0.00;;;;;;;14.18;100.00;102410.72;5105815;28;20089;-47
2023/10/04 05:08:40;;;;;;;0.00;0.00;;;;;;;14.17;100.00;102418.00;5105323;28;20041;-44
2023/10/04 05:11:06;;;;;;;0.00;0.00;;;;;;;14.19;100.00;102421.41;5102451;27;20077;-44
2023/10/04 05:13:31;;;;;;;0.00;0.00;;;;;;;14.20;100.00;102424.94;5104774;28;20031;-44
2023/10/04 05:15:57;;;;;;;0.00;0.00;;;;;;;14.20;100.00;102423.09;5104917;28;20530;-46
2023/10/04 05:18:22;;;;;;;0.00;0.00;;;;;;;14.19;100.00;102418.69;5103581;28;20204;-47
2023/10/04 05:20:51;;;;;;;0.00;0.00;;;;;;;14.19;100.00;102413.28;5105176;28;20040;-45
2023/10/04 05:23:26;;;;;;;0.00;0.00;;;;;;;14.18;100.00;102422.41;5105219;28;20020;-46
2023/10/04 05:25:52;;;;;;;0.00;0.00;;;;;;;14.17;100.00;102426.13;5105590;27;20024;-48
2023/10/04 05:28:18;;;;;;;0.00;0.00;;;;;;;14.16;100.00;102424.41;5095724;27;20073;-47
2023/10/04 05:30:45;;;;;;;0.00;0.00;;;;;;;14.14;100.00;102425.59;5098832;28;20363;-44
2023/10/04 05:33:15;;;;;;;0.00;0.00;;;;;;;14.12;100.00;102427.66;5102450;28;20118;-47
2023/10/04 05:35:42;;;;;;;0.00;0.00;;;;;;;14.07;100.00;102433.56;5100809;28;20038;-43
2023/10/04 05:38:08;;;;;;;0.00;0.00;;;;;;;14.08;100.00;102424.41;5100477;27;20042;-48
2023/10/04 05:40:38;;;;;;;0.00;0.00;;;;;;;14.12;100.00;102436.59;5105586;28;20031;-47
2023/10/04 05:43:06;;;;;;;0.00;0.00;;;;;;;14.12;100.00;102436.59;5105256;28;20031;-46
2023/10/04 05:45:33;;;;;;;0.00;0.00;;;;;;;14.13;100.00;102435.59;5104453;28;20479;-47
2023/10/04 05:47:59;;;;;;;0.00;0.00;;;;;;;14.16;100.00;102432.53;5105127;28;20429;-47
2023/10/04 05:50:26;;;;;;;0.00;0.00;;;;;;;14.17;100.00;102431.53;5100466;28;20110;-49
2023/10/04 05:52:52;;;;;;;0.00;0.00;;;;;;;14.17;100.00;102428.84;5102306;28;20027;-46
2023/10/04 05:55:22;;;;;;;0.00;0.00;;;;;;;14.16;100.00;102437.94;5102912;28;20023;-47
2023/10/04 05:57:50;;;;;;;0.00;0.00;;;;;;;14.17;100.00;102436.97;5101005;28;20382;-47
2023/10/04 06:00:29;;;;;;;0.00;0.00;;;;;;;14.23;100.00;102435.44;5102227;28;20481;-46
2023/10/04 06:03:06;;;;;;;0.00;0.00;;;;;;;14.25;100.00;102446.97;5102748;28;20394;-48
2023/10/04 06:05:34;;;;;;;0.00;0.00;;;;;;;14.32;100.00;102444.41;5100735;28;20024;-47
2023/10/04 06:08:03;;;;;;;0.00;0.00;;;;;;;14.38;100.00;102444.59;5103370;28;20038;-47
2023/10/04 06:10:28;;;;;;;0.00;0.00;;;;;;;14.42;100.00;102445.09;5100940;28;20038;-46
2023/10/04 06:12:56;;;;;;;0.00;0.00;;;;;;;14.43;100.00;102442.25;5102790;28;20015;-46
2023/10/04 06:15:24;;;;;;;0.00;0.00;;;;;;;14.44;100.00;102443.09;5101875;28;20438;-49
2023/10/04 06:17:53;;;;;;;0.00;0.00;;;;;;;14.48;100.00;102444.41;5105369;28;20085;-44
2023/10/04 06:20:32;;;;;;;0.00;0.00;;;;;;;14.54;100.00;102448.38;5104411;28;20027;-46
2023/10/04 06:23:05;;;;;;;0.00;0.00;;;;;;;14.60;100.00;102453.94;5104102;28;20027;-43
2023/10/04 06:25:32;;;;;;;0.00;0.00;;;;;;;14.65;100.00;102457.00;5102473;28;20489;-46
2023/10/04 06:27:59;;;;;;;0.00;0.00;;;;;;;14.70;100.00;102465.47;5104320;28;20027;-47
2023/10/04 06:30:26;;;;;;;0.00;0.00;;;;;;;14.75;100.00;102450.56;5103058;28;20110;-48
2023/10/04 06:32:56;;;;;;;0.00;0.00;;;;;;;14.85;100.00;102457.50;5107671;28;20055;-44
2023/10/04 06:35:23;;;;;;;0.00;0.00;;;;;;;14.94;100.00;102444.78;5106168;28;20059;-47
2023/10/04 06:37:53;;;;;;;0.00;0.00;;;;;;;15.05;100.00;102449.00;5105679;28;20024;-45
2023/10/04 06:40:19;;;;;;;0.00;0.00;;;;;;;15.10;100.00;102455.59;5095560;28;20051;-47
2023/10/04 06:42:49;;;;;;;0.00;0.00;;;;;;;15.15;100.00;102455.94;5104341;28;20032;-47
2023/10/04 06:45:18;;;;;;;0.00;0.00;;;;;;;15.22;100.00;102457.94;5104787;28;20171;-44
2023/10/04 06:47:46;;;;;;;0.00;0.00;;;;;;;15.35;100.00;102458.28;5108487;28;20027;-42
2023/10/04 06:50:19;;;;;;;0.00;0.00;;;;;;;15.46;100.00;102460.59;5104384;27;20032;-42
2023/10/04 06:52:49;;;;;;;0.00;0.00;;;;;;;15.56;100.00;102463.97;5105962;28;20032;-44
2023/10/04 06:55:17;;;;;;;0.00;0.00;;;;;;;15.59;100.00;102466.31;5105026;27;20083;-43
2023/10/04 06:57:44;;;;;;;0.00;0.00;;;;;;;15.69;100.00;102463.44;5099753;28;20028;-45
2023/10/04 07:00:14;;;;;;;0.00;0.00;;;;;;;15.72;100.00;102464.97;5103183;27;20056;-46
2023/10/04 07:02:41;;;;;;;0.00;0.00;;;;;;;15.80;100.00;102473.91;5104856;28;20055;-47
2023/10/04 07:05:08;;;;;;;0.00;0.00;;;;;;;15.75;100.00;102464.59;5105213;28;20126;-46
2023/10/04 07:07:33;;;;;;;0.00;0.00;;;;;;;15.74;100.00;102469.16;5105668;28;20040;-43
2023/10/04 07:09:59;;;;;;;0.00;0.00;;;;;;;15.69;100.00;102478.84;5106026;27;20374;-43
2023/10/04 07:12:26;;;;;;;0.00;0.00;;;;;;;15.78;100.00;102480.53;5106384;28;20399;-47
2023/10/04 07:14:52;;;;;;;0.00;0.00;;;;;;;15.83;100.00;102469.97;5105051;27;20034;-44
2023/10/04 07:17:19;;;;;;;0.00;0.00;;;;;;;15.85;100.00;102476.09;5104459;27;20039;-43
2023/10/04 07:19:44;;;;;;;0.00;0.00;;;;;;;15.88;100.00;102475.72;5107045;27;20024;-48
2023/10/04 07:22:10;;;;;;;0.00;0.00;;;;;;;15.87;100.00;102476.72;5104675;28;20405;-43
2023/10/04 07:24:37;;;;;;;0.00;0.00;;;;;;;16.02;100.00;102476.84;5106075;28;20027;-44
2023/10/04 07:27:03;;;;;;;0.00;0.00;;;;;;;16.14;100.00;102483.56;5106204;28;20055;-45
2023/10/04 07:29:29;;;;;;;0.00;0.00;;;;;;;16.26;100.00;102478.56;5104242;28;20062;-46
2023/10/04 07:31:56;;;;;;;0.00;0.00;;;;;;;16.48;100.00;102481.47;5106736;28;20084;-46
2023/10/04 07:34:23;;;;;;;0.00;0.00;;;;;;;16.58;100.00;102482.91;5106204;27;20105;-42
2023/10/04 07:36:49;;;;;;;;;;;;;;;16.71;100.00;102482.31;5097464;28;20048;-49
2023/10/04 07:39:15;;;;;;;0.00;0.00;;;;;;;16.91;100.00;102485.41;5094109;28;19935;-43
2023/10/04 07:41:41;;;;;;;0.00;0.00;;;;;;;17.19;100.00;102488.34;5097080;28;20079;-46
2023/10/04 07:44:06;;;;;;;0.00;0.00;;;;;;;17.36;100.00;102486.31;5101247;27;20946;-45
2023/10/04 07:46:32;;;;;;;0.00;0.00;;;;;;;17.28;100.00;102497.28;5104815;27;20027;-43
2023/10/04 07:49:00;;;;;;;0.00;0.00;;;;;;;17.33;100.00;102503.03;5092426;28;20059;-43
2023/10/04 07:51:25;;;;;;;0.00;0.00;;;;;;;17.42;100.00;102501.88;5100983;27;20608;-45
2023/10/04 07:53:52;;;;;;;0.00;0.00;;;;;;;17.29;100.00;102507.97;5102623;28;20118;-46
2023/10/04 07:56:18;;;;;;;0.00;0.00;;;;;;;17.15;100.00;102503.38;5098905;27;20039;-49
2023/10/04 07:58:43;;;;;;;0.00;0.00;;;;;;;17.17;100.00;102504.03;5101131;28;20032;-44
2023/10/04 08:01:09;;;;;;;0.00;0.00;;;;;;;17.05;100.00;102511.78;5101756;28;20127;-44
2023/10/04 08:03:34;;;;;;;0.00;0.00;;;;;;;17.19;100.00;102507.38;5096757;27;20020;-46
2023/10/04 08:05:59;;;;;;;0.00;0.00;;;;;;;17.22;100.00;102507.03;5096690;28;20070;-43
2023/10/04 08:08:25;;;;;;;0.00;0.00;;;;;;;17.42;100.00;102501.88;5097703;28;20060;-48
2023/10/04 08:10:50;;;;;;;0.00;0.00;;;;;;;17.81;100.00;102513.56;5096031;28;20032;-46
2023/10/04 08:13:16;;;;;;;0.00;0.00;;;;;;;18.02;100.00;102508.19;5108562;27;20094;-48
2023/10/04 08:15:41;;;;;;;0.00;0.00;;;;;;;17.82;100.00;102513.34;5099844;27;20036;-46
2023/10/04 08:18:07;;;;;;;0.00;0.00;;;;;;;17.40;100.00;102505.81;5095508;28;20028;-48
2023/10/04 08:20:33;;;;;;;0.00;0.00;;;;;;;17.19;100.00;102512.81;5097988;28;20468;-43
2023/10/04 08:22:59;;;;;;;0.00;0.00;;;;;;;17.08;100.00;102516.00;5098922;28;20072;-45
2023/10/04 08:25:27;;;;;;;0.00;0.00;;;;;;;16.89;100.00;102515.50;5106269;28;20024;-44
2023/10/04 08:27:53;;;;;;;0.00;0.00;;;;;;;16.63;100.00;102512.28;5100413;28;20038;-46
2023/10/04 08:30:18;;;;;;;0.00;0.00;;;;;;;16.59;100.00;102508.25;5100124;28;20035;-45
2023/10/04 08:32:51;;;;;;;0.00;0.00;;;;;;;16.87;100.00;102513.97;5094727;28;20362;-42
2023/10/04 08:35:33;;;;;;;0.00;0.00;;;;;;;17.01;100.00;102505.03;5096232;27;20114;-45
2023/10/04 08:37:59;;;;;;;0.00;0.00;;;;;;;17.20;100.00;102509.09;5094104;27;20104;-45
2023/10/04 08:40:29;;;;;;;0.00;0.00;;;;;;;17.21;100.00;102516.22;5110038;27;20069;-45
2023/10/04 08:42:55;;;;;;;0.00;0.00;;;;;;;17.23;100.00;102506.00;5102388;28;20061;-43
2023/10/04 08:45:21;;;;;;;0.00;0.00;;;;;;;17.29;100.00;102502.53;5097323;28;20035;-45
2023/10/04 08:47:51;;;;;;;0.00;0.00;;;;;;;17.51;100.00;102506.22;5110275;27;20475;-46
2023/10/04 08:50:44;;;;;;;0.00;0.00;;;;;;;17.64;100.00;102504.69;5108460;27;20108;-46
2023/10/04 08:53:24;;;;;;;0.00;0.00;;;;;;;17.89;100.00;102510.75;5093715;28;20093;-43
2023/10/04 08:55:54;;;;;;;0.00;0.00;;;;;;;17.95;100.00;102512.69;5101926;28;20028;-46
2023/10/04 08:58:20;;;;;;;0.00;0.00;;;;;;;17.94;100.00;102516.47;5089851;27;20678;-46
2023/10/04 09:00:48;;;;;;;0.00;0.00;;;;;;;17.89;100.00;102505.28;5099187;28;20143;-46
2023/10/04 09:03:15;;;;;;;0.00;0.00;;;;;;;17.74;100.00;102507.97;5100094;27;20533;-43
2023/10/04 09:05:46;;;;;;;0.00;0.00;;;;;;;17.90;100.00;102498.78;5092515;28;20050;-44
2023/10/04 09:08:14;;;;;;;0.00;0.00;;;;;;;18.06;100.00;102505.91;5103655;28;20043;-45
2023/10/04 09:10:39;;;;;;;;;;;;;;;17.99;100.00;102498.50;5101496;28;20074;-47
2023/10/04 09:13:05;;;;;;;0.00;0.00;;;;;;;18.01;100.00;102503.78;5095765;28;19954;-43
2023/10/04 09:15:30;;;;;;;0.00;0.00;;;;;;;17.95;100.00;102509.97;5105792;27;20059;-43
2023/10/04 09:17:57;;;;;;;0.00;0.00;;;;;;;17.85;100.00;102504.84;5091574;28;20035;-46
2023/10/04 09:20:32;;;;;;;0.00;0.00;;;;;;;17.77;100.00;102510.31;5090761;28;20066;-49
2023/10/04 09:22:59;;;;;;;0.00;0.00;;;;;;;17.67;100.00;102516.06;5092072;28;20028;-43
2023/10/04 09:25:35;;;;;;;0.00;0.00;;;;;;;17.70;100.00;102512.13;5110964;28;20118;-46
2023/10/04 09:28:00;;;;;;;0.00;0.00;;;;;;;17.81;100.00;102517.13;5112233;28;20466;-45
2023/10/04 09:30:25;;;;;;;0.00;0.00;;;;;;;17.78;100.00;102528.38;5102463;27;20035;-44
2023/10/04 09:32:51;;;;;;;0.00;0.00;;;;;;;17.65;100.00;102515.41;5093464;28;20059;-45
2023/10/04 09:35:20;;;;;;;0.00;0.00;;;;;;;17.58;100.00;102506.31;5104147;28;20024;-44
2023/10/04 09:37:49;;;;;;;0.00;0.00;;;;;;;17.72;100.00;102512.75;5100773;28;20116;-45
2023/10/04 09:40:17;;;;;;;0.00;0.00;;;;;;;17.72;100.00;102513.63;5109178;28;20038;-46
2023/10/04 09:42:55;;;;;;;0.00;0.00;;;;;;;17.88;100.00;102511.78;5094455;28;20066;-44
2023/10/04 09:45:23;;;;;;;0.00;0.00;;;;;;;17.79;100.00;102511.03;5099407;28;20024;-47
2023/10/04 09:47:55;;;;;;;;;;;;;;;17.92;100.00;102518.53;5091164;28;20070;-45
2023/10/04 09:50:22;;;;;;;0.00;0.00;;;;;;;18.02;100.00;102518.22;5104540;28;20298;-43
2023/10/04 09:52:48;;;;;;;0.00;0.00;;;;;;;17.97;100.00;102521.53;5098869;28;20093;-45
2023/10/04 09:55:13;;;;;;;0.00;0.00;;;;;;;17.78;100.00;102512.88;5104130;28;20032;-44
2023/10/04 09:57:42;;;;;;;0.00;0.00;;;;;;;17.73;100.00;102518.03;5099233;28;20045;-43
2023/10/04 10:00:17;;;;;;;0.00;0.00;;;;;;;17.82;100.00;102512.53;5116481;27;20043;-45
2023/10/04 10:02:50;;;;;;;0.00;0.00;;;;;;;17.71;100.00;102514.66;5099163;28;20031;-42
2023/10/04 10:05:31;;;;;;;0.00;0.00;;;;;;;17.51;100.00;102510.81;5099066;28;20187;-44
2023/10/04 10:08:05;;;;;;;0.00;0.00;;;;;;;17.26;100.00;102504.78;5095543;28;20525;-44
2023/10/04 10:10:41;;;;;;;0.00;0.00;;;;;;;17.27;100.00;102518.22;5103595;28;20488;-46
2023/10/04 10:13:08;;;;;;;0.00;0.00;;;;;;;17.41;100.00;102511.09;5102480;28;20116;-45
2023/10/04 10:15:34;;;;;;;0.00;0.00;;;;;;;17.61;100.00;102500.47;5115129;28;20023;-47
2023/10/04 10:18:00;;;;;;;0.00;0.00;;;;;;;17.73;100.00;102509.88;5114146;28;20030;-46
2023/10/04 10:20:25;;;;;;;0.00;0.00;;;;;;;17.83;100.00;102508.78;5135518;27;20465;-46
2023/10/04 10:22:59;;;;;;;0.00;0.00;;;;;;;17.92;100.00;102507.63;5135642;27;20450;-45
2023/10/04 10:25:29;;;;;;;0.00;0.00;;;;;;;17.51;100.00;102500.78;5134844;27;20083;-46
2023/10/04 10:27:58;;;;;;;0.00;0.00;;;;;;;17.47;100.00;102504.91;5134569;27;20020;-47
2023/10/04 10:30:24;;;;;;;0.00;0.00;;;;;;;17.06;100.00;102509.91;5123712;27;20490;-44
2023/10/04 10:32:53;;;;;;;0.00;0.00;;;;;;;16.89;100.00;102504.63;5110145;28;20027;-43
2023/10/04 10:35:46;;;;;;;0.00;0.00;;;;;;;16.90;100.00;102491.84;5100992;28;20089;-46
2023/10/04 10:38:39;;;;;;;0.00;0.00;;;;;;;16.97;100.00;102508.28;5093869;28;20440;-45
2023/10/04 10:41:06;;;;;;;0.00;0.00;;;;;;;16.87;100.00;102501.22;5106128;28;20020;-47
2023/10/04 10:43:31;;;;;;;0.00;0.00;;;;;;;16.99;100.00;102495.38;5108712;27;20055;-46
2023/10/04 10:45:57;;;;;;;0.00;0.00;;;;;;;16.97;100.00;102492.81;5109764;27;20103;-48
2023/10/04 10:48:33;;;;;;;0.00;0.00;;;;;;;17.03;100.00;102497.50;5107503;28;21006;-46
2023/10/04 10:50:59;;;;;;;0.00;0.00;;;;;;;16.93;100.00;102498.81;5114235;28;20024;-48
2023/10/04 10:53:26;;;;;;;0.00;0.00;;;;;;;16.81;100.00;102503.84;5104844;27;20032;-49
2023/10/04 10:55:51;;;;;;;0.00;0.00;;;;;;;16.77;100.00;102497.94;5103577;28;20040;-47
2023/10/04 10:58:17;;;;;;;0.00;0.00;;;;;;;16.71;100.00;102501.34;5107082;27;20082;-45
2023/10/04 11:00:42;;;;;;;0.00;0.00;;;;;;;16.40;100.00;102499.53;5114893;27;20052;-47
2023/10/04 11:03:11;;;;;;;0.00;0.00;;;;;;;16.47;100.00;102515.94;5130658;27;20372;-47
2023/10/04 11:05:36;;;;;;;0.00;0.00;;;;;;;16.45;100.00;102521.56;5103211;28;20028;-46
2023/10/04 11:08:06;;;;;;;0.00;0.00;;;;;;;16.47;100.00;102526.81;5099596;28;20024;-48
2023/10/04 11:10:34;;;;;;;0.00;0.00;;;;;;;16.26;100.00;102521.19;5091881;28;20027;-45
2023/10/04 11:13:03;;;;;;;0.00;0.00;;;;;;;15.97;100.00;102517.25;5110656;28;20051;-46
2023/10/04 11:15:29;;;;;;;0.00;0.00;;;;;;;15.80;100.00;102527.34;5091253;28;20024;-46
2023/10/04 11:17:55;;;;;;;0.00;0.00;;;;;;;15.62;100.00;102524.00;5117802;27;20030;-43
2023/10/04 11:20:23;;;;;;;0.00;0.00;;;;;;;15.58;100.00;102528.91;5112624;27;20033;-44
2023/10/04 11:22:49;;;;;;;0.00;0.00;;;;;;;15.57;100.00;102522.63;5111190;28;20028;-46